createdAt,value
2019-03-30T00:00:37.913Z,26.40
2019-03-30T00:03:08.678Z,26.40
2019-03-30T00:05:39.568Z,26.40
2019-03-30T00:08:10.488Z,26.40
2019-03-30T00:10:41.180Z,26.40
2019-03-30T00:13:12.029Z,26.40
2019-03-30T00:15:42.631Z,26.50
2019-03-30T00:18:13.467Z,26.60
2019-03-30T00:20:44.287Z,26.60
2019-03-30T00:23:15.012Z,26.60
2019-03-30T00:25:45.976Z,26.60
2019-03-30T00:28:16.652Z,26.70
2019-03-30T00:30:47.439Z,26.70
2019-03-30T00:33:18.428Z,26.80
2019-03-30T00:36:08.258Z,26.80
2019-03-30T00:38:39.459Z,26.80
2019-03-30T00:41:10.326Z,26.90
2019-03-30T00:43:40.891Z,26.90
2019-03-30T00:46:11.728Z,26.90
2019-03-30T00:48:42.508Z,26.90
2019-03-30T00:51:13.561Z,27.00
2019-03-30T00:53:44.512Z,27.00
2019-03-30T00:56:15.415Z,27.00
2019-03-30T00:58:46.449Z,27.10
2019-03-30T01:01:17.690Z,27.10
2019-03-30T01:03:48.661Z,27.20
2019-03-30T01:06:19.592Z,27.20
2019-03-30T01:08:50.304Z,27.30
2019-03-30T01:11:21.268Z,27.40
2019-03-30T01:13:52.157Z,27.40
2019-03-30T01:16:23.059Z,27.50
2019-03-30T01:18:54.059Z,27.50
2019-03-30T01:21:25.033Z,27.60
2019-03-30T01:23:55.870Z,27.70
2019-03-30T01:26:26.946Z,27.80
2019-03-30T01:28:57.861Z,27.90
2019-03-30T01:31:45.914Z,28.00
2019-03-30T01:34:54.390Z,28.10
2019-03-30T01:37:25.780Z,28.20
2019-03-30T01:39:56.500Z,28.20
2019-03-30T01:42:27.526Z,28.30
2019-03-30T01:44:58.271Z,28.30
2019-03-30T01:47:29.237Z,28.40
2019-03-30T01:50:00.042Z,28.50
2019-03-30T01:52:31.038Z,28.50
2019-03-30T01:55:01.965Z,28.60
2019-03-30T01:57:32.994Z,28.60
2019-03-30T02:00:03.885Z,28.60
2019-03-30T02:02:34.666Z,28.70
2019-03-30T02:05:06.671Z,28.70
2019-03-30T02:07:38.683Z,28.80
2019-03-30T02:10:11.426Z,28.80
2019-03-30T02:12:42.452Z,28.90
2019-03-30T02:15:13.509Z,28.90
2019-03-30T02:17:44.400Z,29.00
2019-03-30T02:20:30.396Z,29.10
2019-03-30T02:22:51.194Z,29.10
2019-03-30T02:25:22.303Z,29.20
2019-03-30T02:27:53.349Z,29.20
2019-03-30T02:30:24.371Z,29.20
2019-03-30T02:32:55.318Z,29.30
2019-03-30T02:35:26.642Z,29.30
2019-03-30T02:37:57.909Z,29.40
2019-03-30T02:40:28.861Z,29.50
2019-03-30T02:42:59.796Z,29.50
2019-03-30T02:45:37.130Z,29.60
2019-03-30T02:48:07.984Z,29.60
2019-03-30T02:50:49.553Z,29.70
2019-03-30T02:53:21.878Z,29.70
2019-03-30T02:55:54.493Z,29.80
2019-03-30T02:58:25.796Z,29.90
2019-03-30T03:04:54.144Z,30.10
2019-03-30T03:07:33.664Z,30.20
2019-03-30T03:10:03.680Z,30.20
2019-03-30T03:12:34.609Z,30.30
2019-03-30T03:15:06.811Z,30.40
2019-03-30T03:17:37.704Z,30.40
2019-03-30T03:20:09.676Z,30.50
2019-03-30T03:22:40.733Z,30.60
2019-03-30T03:25:12.184Z,30.70
2019-03-30T03:27:43.250Z,30.70
2019-03-30T03:30:14.917Z,30.70
2019-03-30T03:32:46.328Z,30.80
2019-03-30T03:35:17.439Z,30.80
2019-03-30T03:37:48.477Z,30.80
2019-03-30T03:40:19.850Z,30.90
2019-03-30T03:42:50.943Z,30.90
2019-03-30T03:45:22.006Z,31.00
2019-03-30T03:47:52.776Z,31.00
2019-03-30T03:50:26.094Z,31.20
2019-03-30T03:52:57.237Z,31.20
2019-03-30T03:55:28.129Z,31.20
2019-03-30T03:57:59.061Z,31.30
2019-03-30T04:00:30.721Z,31.40
2019-03-30T04:03:06.727Z,31.40
2019-03-30T04:05:43.071Z,31.50
2019-03-30T04:08:15.338Z,31.50
2019-03-30T04:10:49.579Z,31.50
2019-03-30T04:13:20.844Z,31.60
2019-03-30T04:15:51.928Z,31.70
2019-03-30T04:18:26.654Z,31.80
2019-03-30T04:20:57.879Z,31.80
2019-03-30T04:23:29.688Z,31.90
2019-03-30T04:26:00.714Z,32.00
2019-03-30T04:28:31.837Z,32.00
2019-03-30T04:31:02.704Z,32.00
2019-03-30T04:33:33.773Z,32.10
2019-03-30T04:36:05.120Z,32.10
2019-03-30T04:38:36.507Z,32.10
2019-03-30T04:41:07.535Z,32.20
2019-03-30T04:43:38.453Z,32.20
2019-03-30T04:46:09.255Z,32.30
2019-03-30T04:48:40.446Z,32.30
2019-03-30T04:51:12.217Z,32.40
2019-03-30T04:53:43.324Z,32.40
2019-03-30T04:56:14.119Z,32.50
2019-03-30T04:58:45.114Z,32.60
2019-03-30T05:01:16.142Z,32.60
2019-03-30T05:03:47.263Z,32.60
2019-03-30T05:06:18.590Z,32.70
2019-03-30T05:08:49.711Z,32.80
2019-03-30T05:11:20.853Z,32.80
2019-03-30T05:13:51.736Z,33.00
2019-03-30T05:16:44.059Z,33.00
2019-03-30T05:19:16.648Z,33.10
2019-03-30T05:21:47.601Z,33.20
2019-03-30T05:24:18.195Z,33.20
2019-03-30T05:26:49.261Z,33.30
2019-03-30T05:29:20.143Z,33.30
2019-03-30T05:31:51.206Z,33.40
2019-03-30T05:34:22.156Z,33.40
2019-03-30T05:36:52.836Z,33.40
2019-03-30T05:39:23.844Z,33.50
2019-03-30T05:41:54.573Z,33.50
2019-03-30T05:44:25.478Z,33.60
2019-03-30T05:46:56.372Z,33.60
2019-03-30T05:49:27.351Z,33.60
2019-03-30T05:51:58.192Z,33.70
2019-03-30T05:54:29.002Z,33.70
2019-03-30T05:57:00.014Z,33.70
2019-03-30T05:59:31.356Z,33.70
2019-03-30T06:02:02.141Z,33.70
2019-03-30T06:04:33.143Z,33.70
2019-03-30T06:07:04.323Z,33.70
2019-03-30T06:09:35.323Z,33.80
2019-03-30T06:12:06.543Z,33.80
2019-03-30T06:14:37.383Z,33.90
2019-03-30T06:17:08.611Z,33.90
2019-03-30T06:19:39.469Z,34.00
2019-03-30T06:22:10.359Z,34.00
2019-03-30T06:24:41.026Z,34.00
2019-03-30T06:27:11.743Z,34.00
2019-03-30T06:29:42.870Z,34.00
2019-03-30T06:32:13.713Z,34.10
2019-03-30T06:34:44.687Z,34.10
2019-03-30T06:37:15.891Z,34.00
2019-03-30T06:39:46.725Z,34.00
2019-03-30T06:42:17.518Z,34.00
2019-03-30T06:44:48.332Z,34.00
2019-03-30T06:47:19.131Z,34.00
2019-03-30T06:49:49.970Z,34.00
2019-03-30T06:52:21.101Z,34.00
2019-03-30T06:54:51.962Z,34.00
2019-03-30T06:57:23.191Z,34.00
2019-03-30T06:59:54.139Z,34.00
2019-03-30T07:02:25.899Z,34.00
2019-03-30T07:04:57.540Z,34.00
2019-03-30T07:07:28.484Z,34.00
2019-03-30T07:10:00.736Z,34.00
2019-03-30T07:12:33.897Z,34.00
2019-03-30T07:15:08.114Z,34.00
2019-03-30T07:17:43.589Z,34.00
2019-03-30T07:20:17.721Z,34.00
2019-03-30T07:22:53.023Z,34.00
2019-03-30T07:25:28.963Z,34.00
2019-03-30T07:28:00.339Z,34.00
2019-03-30T07:30:39.703Z,34.00
2019-03-30T07:33:10.483Z,34.00
2019-03-30T07:35:41.680Z,34.00
2019-03-30T07:38:12.403Z,34.00
2019-03-30T07:40:44.361Z,34.00
2019-03-30T07:43:15.699Z,34.00
2019-03-30T07:45:48.822Z,34.00
2019-03-30T07:48:20.144Z,34.00
2019-03-30T07:50:51.030Z,33.90
2019-03-30T07:53:26.647Z,33.90
2019-03-30T07:56:07.374Z,34.00
2019-03-30T07:58:26.555Z,34.00
2019-03-30T08:00:57.675Z,34.00
2019-03-30T08:03:28.841Z,33.90
2019-03-30T08:05:59.707Z,33.90
2019-03-30T08:08:30.936Z,33.90
2019-03-30T08:11:01.671Z,33.90
2019-03-30T08:13:32.289Z,33.90
2019-03-30T08:16:03.304Z,34.00
2019-03-30T08:18:34.210Z,34.00
2019-03-30T08:21:05.319Z,34.00
2019-03-30T08:23:40.689Z,34.00
2019-03-30T08:26:08.278Z,34.00
2019-03-30T08:28:39.792Z,34.10
2019-03-30T08:31:10.727Z,34.20
2019-03-30T08:33:41.550Z,34.20
2019-03-30T08:36:12.425Z,34.30
2019-03-30T08:38:43.373Z,34.30
2019-03-30T08:41:14.769Z,34.40
2019-03-30T08:43:45.753Z,34.40
2019-03-30T08:46:22.784Z,34.40
2019-03-30T08:48:54.333Z,34.40
2019-03-30T08:51:25.615Z,34.50
2019-03-30T08:53:57.189Z,34.50
2019-03-30T08:56:28.254Z,34.50
2019-03-30T08:58:59.189Z,34.60
2019-03-30T09:01:30.241Z,34.60
2019-03-30T09:04:01.828Z,34.70
2019-03-30T09:06:33.626Z,34.70
2019-03-30T09:09:06.313Z,34.70
2019-03-30T09:11:37.434Z,34.70
2019-03-30T09:14:08.366Z,34.70
2019-03-30T09:16:42.215Z,34.70
2019-03-30T09:19:13.233Z,34.70
2019-03-30T09:21:44.206Z,34.60
2019-03-30T09:24:15.671Z,34.60
2019-03-30T09:26:46.612Z,34.50
2019-03-30T09:29:17.611Z,34.50
2019-03-30T09:31:48.562Z,34.40
2019-03-30T09:34:19.674Z,34.30
2019-03-30T09:37:10.788Z,34.30
2019-03-30T09:39:41.847Z,34.30
2019-03-30T09:42:13.035Z,34.20
2019-03-30T09:44:44.015Z,34.20
2019-03-30T09:47:17.040Z,34.20
2019-03-30T09:49:48.146Z,34.10
2019-03-30T09:52:18.938Z,34.10
2019-03-30T09:54:49.928Z,34.00
2019-03-30T09:57:20.795Z,34.10
2019-03-30T09:59:52.725Z,34.10
2019-03-30T10:02:23.664Z,34.10
2019-03-30T10:04:54.380Z,34.10
2019-03-30T10:07:26.088Z,34.10
2019-03-30T10:09:57.223Z,34.10
2019-03-30T10:12:28.018Z,34.10
2019-03-30T10:14:58.912Z,34.10
2019-03-30T10:17:29.741Z,34.10
2019-03-30T10:20:04.742Z,34.10
2019-03-30T10:22:32.876Z,34.10
2019-03-30T10:25:03.787Z,34.00
2019-03-30T10:27:34.653Z,33.90
2019-03-30T10:30:06.921Z,33.90
2019-03-30T10:32:37.796Z,33.90
2019-03-30T10:35:09.313Z,33.90
2019-03-30T10:37:40.476Z,33.80
2019-03-30T10:40:11.739Z,33.80
2019-03-30T10:42:42.453Z,33.80
2019-03-30T10:45:15.879Z,33.70
2019-03-30T10:47:46.798Z,33.70
2019-03-30T10:50:18.181Z,33.70
2019-03-30T10:52:48.985Z,33.60
2019-03-30T10:55:22.114Z,33.60
2019-03-30T10:57:53.283Z,33.50
2019-03-30T11:00:26.406Z,33.40
2019-03-30T11:02:57.204Z,33.30
2019-03-30T11:05:28.132Z,33.20
2019-03-30T11:07:59.242Z,33.20
2019-03-30T11:10:33.248Z,33.10
2019-03-30T11:13:04.130Z,33.00
2019-03-30T11:15:35.099Z,32.90
2019-03-30T11:18:05.980Z,32.70
2019-03-30T11:20:36.694Z,32.60
2019-03-30T11:23:07.606Z,32.60
2019-03-30T11:25:38.407Z,32.50
2019-03-30T11:28:09.251Z,32.30
2019-03-30T11:30:40.007Z,32.30
2019-03-30T11:33:11.122Z,32.20
2019-03-30T11:35:41.990Z,32.10
2019-03-30T11:38:12.831Z,32.00
2019-03-30T11:40:43.957Z,31.90
2019-03-30T11:43:14.778Z,31.90
2019-03-30T11:45:45.717Z,31.80
2019-03-30T11:48:16.540Z,31.70
2019-03-30T11:50:47.164Z,31.60
2019-03-30T11:53:18.081Z,31.50
2019-03-30T11:55:48.764Z,31.50
2019-03-30T11:58:20.687Z,31.40
2019-03-30T12:00:51.478Z,31.40
2019-03-30T12:03:22.519Z,31.30
2019-03-30T12:05:53.453Z,31.20
2019-03-30T12:08:24.344Z,31.10
2019-03-30T12:10:55.835Z,31.10
2019-03-30T12:13:26.640Z,31.00
2019-03-30T12:15:57.606Z,31.00
2019-03-30T12:18:28.330Z,30.90
2019-03-30T12:20:59.195Z,30.90
2019-03-30T12:23:30.019Z,30.80
2019-03-30T12:26:00.908Z,30.80
2019-03-30T12:28:31.600Z,30.80
2019-03-30T12:31:02.573Z,30.80
2019-03-30T12:33:33.513Z,30.70
2019-03-30T12:36:04.331Z,30.70
2019-03-30T12:38:35.119Z,30.70
2019-03-30T12:41:06.257Z,30.70
2019-03-30T12:43:39.022Z,30.60
2019-03-30T12:46:09.104Z,30.60
2019-03-30T12:48:39.911Z,30.60
2019-03-30T12:51:10.622Z,30.50
2019-03-30T12:53:50.191Z,30.40
2019-03-30T12:56:13.455Z,30.40
2019-03-30T12:58:44.314Z,30.40
2019-03-30T13:01:15.722Z,30.30
2019-03-30T13:03:46.618Z,30.30
2019-03-30T13:06:17.344Z,30.20
2019-03-30T13:08:48.062Z,30.10
2019-03-30T13:11:19.207Z,30.10
2019-03-30T13:13:50.664Z,30.00
2019-03-30T13:16:21.370Z,30.00
2019-03-30T13:18:52.224Z,30.00
2019-03-30T13:21:23.098Z,29.90
2019-03-30T13:23:53.820Z,29.90
2019-03-30T13:26:24.744Z,29.90
2019-03-30T13:28:55.615Z,29.90
2019-03-30T13:31:26.633Z,29.90
2019-03-30T13:33:57.492Z,29.90
2019-03-30T13:36:29.650Z,29.90
2019-03-30T13:39:00.745Z,29.80
2019-03-30T13:41:31.635Z,29.80
2019-03-30T13:44:04.281Z,29.80
2019-03-30T13:46:34.701Z,29.70
2019-03-30T13:49:05.503Z,29.70
2019-03-30T13:51:36.451Z,29.70
2019-03-30T13:54:07.354Z,29.60
2019-03-30T13:56:38.033Z,29.60
2019-03-30T13:59:08.911Z,29.60
2019-03-30T14:01:39.811Z,29.50
2019-03-30T14:04:10.627Z,29.50
2019-03-30T14:06:41.360Z,29.40
2019-03-30T14:09:12.240Z,29.40
2019-03-30T14:11:43.193Z,29.30
2019-03-30T14:14:14.003Z,29.20
2019-03-30T14:16:45.566Z,29.20
2019-03-30T14:19:16.457Z,29.10
2019-03-30T14:21:47.378Z,29.10
2019-03-30T14:24:18.463Z,29.00
2019-03-30T14:26:49.336Z,29.00
2019-03-30T14:29:20.131Z,29.00
2019-03-30T14:31:51.098Z,29.00
2019-03-30T14:34:21.795Z,29.00
2019-03-30T14:36:52.739Z,29.00
2019-03-30T14:39:23.583Z,28.90
2019-03-30T14:41:54.677Z,28.90
2019-03-30T14:44:25.545Z,28.90
2019-03-30T14:46:56.459Z,28.90
2019-03-30T14:49:27.304Z,28.90
2019-03-30T14:51:58.030Z,28.90
2019-03-30T14:54:29.058Z,28.90
2019-03-30T14:56:59.763Z,28.90
2019-03-30T14:59:30.794Z,28.90
2019-03-30T15:02:01.541Z,28.90
2019-03-30T15:04:32.359Z,28.90
2019-03-30T15:07:05.991Z,28.80
2019-03-30T15:09:36.805Z,28.80
2019-03-30T15:12:07.640Z,28.80
2019-03-30T15:14:38.347Z,28.80
2019-03-30T15:17:09.270Z,28.80
2019-03-30T15:19:40.686Z,28.70
2019-03-30T15:22:11.461Z,28.70
2019-03-30T15:24:42.318Z,28.70
2019-03-30T15:27:13.246Z,28.70
2019-03-30T15:29:45.546Z,28.70
2019-03-30T15:32:16.531Z,28.70
2019-03-30T15:34:47.572Z,28.60
2019-03-30T15:37:18.335Z,28.60
2019-03-30T15:39:49.381Z,28.60
2019-03-30T15:42:20.335Z,28.50
2019-03-30T15:44:51.028Z,28.50
2019-03-30T15:47:22.309Z,28.50
2019-03-30T15:49:53.783Z,28.50
2019-03-30T15:52:26.405Z,28.50
2019-03-30T15:54:56.769Z,28.40
2019-03-30T15:57:27.607Z,28.40
2019-03-30T15:59:58.466Z,28.40
2019-03-30T16:02:29.362Z,28.40
2019-03-30T16:05:01.312Z,28.40
2019-03-30T16:07:32.406Z,28.40
2019-03-30T16:10:03.093Z,28.40
2019-03-30T16:12:35.098Z,28.30
2019-03-30T16:15:07.195Z,28.30
2019-03-30T16:17:38.127Z,28.20
2019-03-30T16:20:09.449Z,28.20
2019-03-30T16:22:40.784Z,28.10
2019-03-30T16:25:12.177Z,28.10
2019-03-30T16:27:43.693Z,28.00
2019-03-30T16:30:16.107Z,28.10
2019-03-30T16:32:47.843Z,28.00
2019-03-30T16:35:18.624Z,27.90
2019-03-30T16:37:49.531Z,27.80
2019-03-30T16:40:20.384Z,27.80
2019-03-30T16:42:51.304Z,27.80
2019-03-30T16:45:22.106Z,27.80
2019-03-30T16:47:52.983Z,27.80
2019-03-30T16:50:23.794Z,27.80
2019-03-30T16:52:54.878Z,27.80
2019-03-30T16:55:25.735Z,27.80
2019-03-30T16:57:56.314Z,27.70
2019-03-30T17:00:27.083Z,27.70
2019-03-30T17:02:57.785Z,27.60
2019-03-30T17:05:28.800Z,27.60
2019-03-30T17:07:59.607Z,27.60
2019-03-30T17:10:30.564Z,27.60
2019-03-30T17:13:01.324Z,27.60
2019-03-30T17:15:32.354Z,27.60
2019-03-30T17:18:03.069Z,27.60
2019-03-30T17:20:34.080Z,27.60
2019-03-30T17:23:05.000Z,27.70
2019-03-30T17:25:36.265Z,27.70
2019-03-30T17:28:07.233Z,27.60
2019-03-30T17:30:38.227Z,27.70
2019-03-30T17:33:08.979Z,27.60
2019-03-30T17:35:40.042Z,27.60
2019-03-30T17:38:10.860Z,27.50
2019-03-30T17:40:41.852Z,27.50
2019-03-30T17:43:12.774Z,27.40
2019-03-30T17:45:43.666Z,27.50
2019-03-30T17:48:14.616Z,27.40
2019-03-30T17:50:45.389Z,27.40
2019-03-30T17:53:16.217Z,27.40
2019-03-30T17:55:47.005Z,27.40
2019-03-30T17:58:18.086Z,27.40
2019-03-30T18:00:49.315Z,27.40
2019-03-30T18:03:20.140Z,27.40
2019-03-30T18:05:50.854Z,27.40
2019-03-30T18:08:21.782Z,27.40
2019-03-30T18:10:52.761Z,27.40
2019-03-30T18:13:23.806Z,27.40
2019-03-30T18:15:54.689Z,27.40
2019-03-30T18:18:25.536Z,27.40
2019-03-30T18:20:57.313Z,27.40
2019-03-30T18:23:30.168Z,27.40
2019-03-30T18:26:00.528Z,27.40
2019-03-30T18:28:31.402Z,27.40
2019-03-30T18:31:02.285Z,27.40
2019-03-30T18:33:33.504Z,27.40
2019-03-30T18:36:04.879Z,27.40
2019-03-30T18:38:37.307Z,27.30
2019-03-30T18:41:08.288Z,27.20
2019-03-30T18:43:39.434Z,27.20
2019-03-30T18:46:10.791Z,27.20
2019-03-30T18:48:41.480Z,27.30
2019-03-30T18:51:12.260Z,27.30
2019-03-30T18:53:43.984Z,27.30
2019-03-30T18:56:14.875Z,27.40
2019-03-30T18:58:45.670Z,27.30
2019-03-30T19:01:16.455Z,27.30
2019-03-30T19:03:47.161Z,27.20
2019-03-30T19:06:18.289Z,27.20
2019-03-30T19:08:50.425Z,27.20
2019-03-30T19:11:21.876Z,27.10
2019-03-30T19:13:52.781Z,27.10
2019-03-30T19:16:23.576Z,27.10
2019-03-30T19:18:54.504Z,27.10
2019-03-30T19:21:25.482Z,27.10
2019-03-30T19:23:56.447Z,27.10
2019-03-30T19:26:27.269Z,27.10
2019-03-30T19:28:58.220Z,27.10
2019-03-30T19:31:29.186Z,27.10
2019-03-30T19:34:02.320Z,27.10
2019-03-30T19:36:33.025Z,27.00
2019-03-30T19:39:04.203Z,27.00
2019-03-30T19:41:34.904Z,27.10
2019-03-30T19:44:05.832Z,27.10
2019-03-30T19:46:36.842Z,27.10
2019-03-30T19:49:07.658Z,27.10
2019-03-30T19:51:38.470Z,27.10
2019-03-30T19:54:09.437Z,27.00
2019-03-30T19:56:40.201Z,27.00
2019-03-30T19:59:11.541Z,27.00
2019-03-30T20:01:42.541Z,27.00
2019-03-30T20:04:13.390Z,27.00
2019-03-30T20:06:44.273Z,27.00
2019-03-30T20:09:15.129Z,27.00
2019-03-30T20:11:46.088Z,26.90
2019-03-30T20:14:17.050Z,26.90
2019-03-30T20:16:48.362Z,26.90
2019-03-30T20:19:19.160Z,26.90
2019-03-30T20:21:50.713Z,26.90
2019-03-30T20:24:21.607Z,26.90
2019-03-30T20:26:52.847Z,26.90
2019-03-30T20:29:25.605Z,26.90
2019-03-30T20:31:56.022Z,26.80
2019-03-30T20:34:26.847Z,26.80
2019-03-30T20:36:57.711Z,26.80
2019-03-30T20:39:28.440Z,26.80
2019-03-30T20:41:59.329Z,26.80
2019-03-30T20:44:30.276Z,26.80
2019-03-30T20:47:01.155Z,26.80
2019-03-30T20:49:31.931Z,26.70
2019-03-30T20:52:02.646Z,26.80
2019-03-30T20:54:33.439Z,26.70
2019-03-30T20:57:04.480Z,26.80
2019-03-30T20:59:40.377Z,26.80
2019-03-30T21:02:07.583Z,26.80
2019-03-30T21:04:38.463Z,26.80
2019-03-30T21:07:09.481Z,26.80
2019-03-30T21:09:40.196Z,26.80
2019-03-30T21:12:11.194Z,26.80
2019-03-30T21:14:42.148Z,26.80
2019-03-30T21:17:12.967Z,26.70
2019-03-30T21:19:43.770Z,26.70
2019-03-30T21:22:14.491Z,26.80
2019-03-30T21:24:45.753Z,26.70
2019-03-30T21:27:16.552Z,26.70
2019-03-30T21:29:54.550Z,26.70
2019-03-30T21:32:19.375Z,26.60
2019-03-30T21:34:50.387Z,26.60
2019-03-30T21:37:21.170Z,26.60
2019-03-30T21:39:52.794Z,26.60
2019-03-30T21:42:23.531Z,26.60
2019-03-30T21:44:54.302Z,26.50
2019-03-30T21:47:25.199Z,26.50
2019-03-30T21:49:56.162Z,26.60
2019-03-30T21:52:27.022Z,26.60
2019-03-30T21:54:58.215Z,26.60
2019-03-30T21:57:29.146Z,26.50
2019-03-30T22:00:09.709Z,26.50
2019-03-30T22:02:32.105Z,26.50
2019-03-30T22:05:03.091Z,26.50
2019-03-30T22:07:33.896Z,26.50
2019-03-30T23:41:45.930Z,26.20
2019-03-30T23:44:15.946Z,26.30
2019-03-30T23:46:46.740Z,26.40
2019-03-30T23:49:17.823Z,26.50
2019-03-30T23:51:48.717Z,26.50
2019-03-30T23:54:19.465Z,26.50
2019-03-30T23:56:50.387Z,26.50
2019-03-30T23:59:21.338Z,26.50
